createdAt,value
2022-11-05T00:03:12.411Z,13.00
2022-11-05T00:13:37.519Z,19.50
2022-11-05T00:24:02.299Z,18.00
2022-11-05T00:34:08.624Z,14.60
2022-11-05T00:44:33.663Z,17.70
2022-11-05T00:54:39.951Z,15.30
2022-11-05T01:04:46.662Z,12.90
2022-11-05T01:14:52.977Z,13.40
2022-11-05T01:24:59.245Z,13.80
2022-11-05T01:35:11.404Z,15.50
2022-11-05T01:45:18.944Z,14.70
2022-11-05T01:55:28.324Z,12.70
2022-11-05T02:05:35.353Z,16.40
2022-11-05T02:15:50.250Z,15.00
2022-11-05T02:26:29.670Z,14.30
2022-11-05T02:37:01.055Z,11.15
2022-11-05T02:47:18.351Z,13.00
2022-11-05T02:57:24.907Z,14.50
2022-11-05T03:07:37.219Z,18.00
2022-11-05T03:18:15.144Z,13.80
2022-11-05T03:28:23.804Z,11.80
2022-11-05T03:38:34.409Z,14.10
2022-11-05T03:48:44.450Z,11.00
2022-11-05T03:58:54.748Z,11.60
2022-11-05T04:09:22.428Z,10.40
2022-11-05T04:19:47.277Z,10.20
2022-11-05T04:30:11.984Z,9.30
2022-11-05T04:40:18.260Z,18.90
2022-11-05T04:50:25.052Z,12.00
2022-11-05T05:00:31.463Z,9.00
2022-11-05T05:10:38.039Z,9.70
2022-11-05T05:21:03.077Z,11.60
2022-11-05T05:31:09.432Z,13.10
2022-11-05T05:41:15.851Z,11.40
2022-11-05T05:51:22.112Z,13.00
2022-11-05T06:01:28.435Z,15.60
2022-11-05T06:11:35.209Z,15.70
2022-11-05T06:21:41.520Z,15.60
2022-11-05T06:31:47.841Z,18.00
2022-11-05T06:42:17.042Z,17.30
2022-11-05T06:52:21.020Z,16.60
2022-11-05T07:02:27.365Z,16.00
2022-11-05T07:12:33.872Z,14.70
2022-11-05T07:22:40.188Z,17.30
2022-11-05T07:32:46.453Z,19.40
2022-11-05T07:42:56.659Z,15.60
2022-11-05T07:53:09.307Z,20.60
2022-11-05T08:03:18.252Z,23.00
2022-11-05T08:13:24.856Z,18.10
2022-11-05T08:23:31.984Z,17.50
2022-11-05T08:33:38.509Z,18.50
2022-11-05T08:43:44.819Z,19.50
2022-11-05T08:53:51.060Z,21.20
2022-11-05T09:03:57.339Z,19.50
2022-11-05T09:14:03.874Z,20.80
2022-11-05T09:24:10.148Z,21.50
2022-11-05T09:34:16.429Z,20.40
2022-11-05T09:44:39.664Z,19.50
2022-11-05T09:54:47.203Z,19.60
2022-11-05T10:04:57.217Z,20.20
2022-11-05T10:15:17.456Z,19.60
2022-11-05T10:25:26.364Z,24.00
2022-11-05T10:35:34.897Z,25.70
2022-11-05T10:45:41.112Z,18.70
2022-11-05T10:55:50.146Z,19.00
2022-11-05T11:06:12.960Z,18.50
2022-11-05T11:16:24.912Z,16.50
2022-11-05T11:26:34.870Z,17.30
2022-11-05T11:36:45.752Z,16.60
2022-11-05T11:46:53.612Z,13.00
2022-11-05T11:56:59.987Z,14.20
2022-11-05T12:07:21.583Z,12.10
2022-11-05T12:17:49.460Z,11.40
2022-11-05T12:28:29.803Z,13.90
2022-11-05T12:38:49.432Z,47.10
2022-11-05T12:49:01.630Z,15.80
2022-11-05T12:59:17.359Z,17.30
2022-11-05T13:09:31.535Z,16.90
2022-11-05T13:19:42.488Z,16.30
2022-11-05T13:29:54.649Z,20.50
2022-11-05T13:40:05.041Z,18.70
2022-11-05T13:50:40.079Z,17.50
2022-11-05T14:01:18.799Z,16.50
2022-11-05T14:11:36.764Z,23.00
2022-11-05T14:21:54.184Z,20.60
2022-11-05T14:32:09.749Z,26.30
2022-11-05T14:42:16.067Z,24.40
2022-11-05T14:52:22.569Z,20.30
2022-11-05T15:02:34.886Z,20.30
2022-11-05T15:12:48.032Z,20.90
2022-11-05T15:22:59.343Z,24.70
2022-11-05T15:33:10.854Z,32.50
2022-11-05T15:43:18.831Z,25.60
2022-11-05T15:54:02.266Z,24.80
2022-11-05T16:04:16.199Z,26.20
2022-11-05T16:14:22.507Z,25.60
2022-11-05T16:24:29.537Z,28.20
2022-11-05T16:34:40.770Z,26.40
2022-11-05T16:44:47.124Z,24.10
2022-11-05T16:54:53.392Z,24.50
2022-11-05T17:04:59.747Z,28.90
2022-11-05T17:15:25.197Z,25.70
2022-11-05T17:25:31.854Z,29.40
2022-11-05T17:35:42.139Z,29.30
2022-11-05T17:45:59.975Z,29.10
2022-11-05T17:56:14.638Z,27.50
2022-11-05T18:06:23.344Z,34.50
2022-11-05T18:16:29.671Z,30.00
2022-11-05T18:26:36.291Z,27.50
2022-11-05T18:36:44.730Z,27.80
2022-11-05T18:46:58.233Z,25.90
2022-11-05T18:57:04.914Z,26.90
2022-11-05T19:07:11.223Z,27.20
2022-11-05T19:17:17.515Z,31.50
2022-11-05T19:27:24.433Z,28.90
2022-11-05T19:37:30.711Z,30.10
2022-11-05T19:47:37.031Z,34.70
2022-11-05T19:57:43.297Z,36.90
2022-11-05T20:07:53.121Z,34.20
2022-11-05T20:18:00.043Z,30.30
2022-11-05T20:28:06.809Z,32.60
2022-11-05T20:38:13.294Z,32.00
2022-11-05T20:48:19.979Z,32.10
2022-11-05T20:58:26.339Z,33.50
2022-11-05T21:08:33.459Z,29.90
2022-11-05T21:18:40.568Z,33.80
2022-11-05T21:28:46.864Z,28.50
2022-11-05T21:38:53.178Z,26.60
2022-11-05T21:48:59.446Z,27.50
2022-11-05T21:59:24.900Z,31.90
2022-11-05T22:09:31.435Z,30.60
2022-11-05T22:19:38.104Z,31.30
2022-11-05T22:29:44.645Z,33.90
2022-11-05T22:39:50.899Z,31.70
2022-11-05T22:49:57.192Z,43.90
2022-11-05T23:00:03.533Z,28.70
2022-11-05T23:10:28.885Z,28.70
2022-11-05T23:20:52.748Z,36.75
2022-11-05T23:31:17.566Z,27.70
2022-11-05T23:41:42.431Z,32.20
2022-11-05T23:51:48.698Z,25.30
